Flight Number: EUR2433 Duration: 1:15
Departure: Geneva Cointrin Airport (LSGG) at 07:30 Distance: 462 Nm
Arrival: Split (LDSP) at 08:45 Equipment: A321

Weather Information
Geneve-Cointrin, Switzerland (LSGG) 46-15N 006-08E 416M May 20, 2018 - 09:50 AM EDT / 2018.05.20 1350 UTC
Wind: from the NNE (030 degrees) at 9 MPH (8 KT):0
Visibility: greater than 7 mile(s):0
Sky conditions: partly cloudy Weather: Towering cumulus clouds observed Temperature: 68 F (20 C) Dew Point: 50 F (10 C) Relative Humidity: 52% Pressure (altimeter): 29.97 in. Hg (1015 hPa)
ob: LSGG 201350Z 03008KT 9999 FEW040 FEW050TCU SCT150 20/10 Q1015 NOSIG cycle: 14
Sunrise: 04:00 Sunset: 19:03 (UTC)

404 Not Found

Not Found

The requested URL /data/observations/metar/decoded/LDSP.TXT was not found on this server.


Sunrise: 03:28 Sunset: 18:14 (UTC)

TAF:2018/05/20 12:27 TAF LDSP 201125Z 2012/2112 23008KT 9999 FEW050 TX27/2012Z TN20/2103Z TEMPO 2012/2014 23011KT PROB30 TEMPO 2013/2015 FEW040TCU BECMG 2017/2019 04008KT TEMPO 2019/2102 04012KT BECMG 2104/2106 VRB02KT BECMG 2109/2111 23008KT PROB40 TEMPO 2109/2112 FEW040TCU SCT050

Previous Pireps for this route
Date Aircraft Flight time Fuel used Landing rate On time
2016-04-06A32101.2812708-258No
2016-08-28A32101.419894-217No
(pireps marked green are flown by you)

Route map